Stations météo

réclame
Mon MeteoGroup
Monte Scuro, Italie (16344): Température de l'air & dewpoint: 12.02.2019 20:00:00 - 18.02.2019 20:00:00 (CET)Monte Scuro, Italie (16344): Vitesse du vent & gusts: 12.02.2019 20:00:00 - 18.02.2019 20:00:00 (CET)Monte Scuro, Italie (16344): Direction du vent: 12.02.2019 20:00:00 - 18.02.2019 20:00:00 (CET)Monte Scuro, Italie (16344): visibility: 12.02.2019 20:00:00 - 18.02.2019 20:00:00 (CET)Monte Scuro, Italie (16344): Ensoleillement: 12.02.2019 20:00:00 - 18.02.2019 20:00:00 (CET)
Date & Time tt [°C] td [°C] ff [km/h] ff [knt] fx [km/h] fx [knt] dd vv [km] sd [min]
18.02.2019 20:00:00 6,0 -2,1 5 3 - - ESE 15 -
18.02.2019 19:00:00 5,4 1,9 5 3 - - E 15 -
18.02.2019 18:00:00 5,8 3,3 5 3 - - E 20 24
18.02.2019 17:00:00 6,4 3,2 0 0 - - N 30 60
18.02.2019 16:00:00 7,2 3,4 0 0 - - N 30 60
18.02.2019 15:00:00 7,4 1,3 4 2 - - W 30 60
18.02.2019 14:00:00 7,8 0,5 4 2 - - W 30 60
18.02.2019 13:00:00 7,8 -1,4 5 3 - - W 30 60
18.02.2019 12:00:00 8,4 -15,3 5 3 - - W 30 60
18.02.2019 11:00:00 8,0 -21,8 0 0 - - N 30 60
18.02.2019 10:00:00 8,2 -21,6 0 0 - - N 25 60
18.02.2019 09:00:00 7,2 -22,4 4 2 - - NE 25 60
18.02.2019 08:00:00 6,2 -23,2 0 0 - - N 25 60
18.02.2019 07:00:00 5,6 -23,7 0 0 - - N 20 -
18.02.2019 06:00:00 5,4 -23,8 4 2 - - ENE 10 -
18.02.2019 05:00:00 4,8 -24,3 4 2 - - NE 10 -
18.02.2019 04:00:00 4,0 -24,9 5 3 - - ENE 10 -
18.02.2019 03:00:00 4,0 -24,9 5 3 - - ENE 10 -
18.02.2019 02:00:00 4,0 -24,9 9 5 - - ENE 10 -
18.02.2019 01:00:00 3,8 -25,1 9 5 - - ENE 10 -
18.02.2019 00:00:00 3,6 -12,0 9 5 - - NE 10 -
17.02.2019 23:00:00 3,8 -11,0 11 6 - - NE 10 -
17.02.2019 22:00:00 3,8 -11,4 9 5 - - NNE 10 -
17.02.2019 21:00:00 3,8 -11,0 11 6 - - NNE 10 -
17.02.2019 20:00:00 3,8 -13,0 11 6 - - NNE 10 -
17.02.2019 19:00:00 3,8 -14,9 11 6 - - NNE 10 -
17.02.2019 18:00:00 3,4 -9,2 11 6 - - NNE 15 30
17.02.2019 17:00:00 4,0 -14,3 11 6 - - NNE 15 60
17.02.2019 16:00:00 4,8 -17,5 5 3 - - NNE 20 60
17.02.2019 15:00:00 5,4 -9,6 4 2 - - NNE 20 60
17.02.2019 14:00:00 5,4 -8,1 0 0 - - N 20 60
17.02.2019 13:00:00 5,2 -13,7 5 3 - - NNE 25 60
17.02.2019 12:00:00 4,8 -18,2 9 5 - - NNE 25 60
17.02.2019 11:00:00 4,0 -18,9 15 8 - - NNE 25 60
17.02.2019 10:00:00 3,6 -15,6 22 12 - - WNW 30 60
17.02.2019 09:00:00 2,0 -9,9 22 12 - - NNW 25 60
17.02.2019 08:00:00 0,2 -10,9 18 10 - - WNW 20 24
17.02.2019 07:00:00 -0,2 -10,7 0 0 - - N 20 -
17.02.2019 06:00:00 -0,4 -6,2 4 2 - - WNW 10 -
17.02.2019 05:00:00 -1,2 -3,4 18 10 - - WNW - -
17.02.2019 04:00:00 -1,6 -3,0 28 15 - - WNW 10 -
17.02.2019 03:00:00 -2,0 -3,3 28 15 - - WNW 10 -
17.02.2019 02:00:00 -3,0 -4,4 37 20 - - WNW 10 -
17.02.2019 01:00:00 -2,8 -4,1 37 20 - - W 10 -
17.02.2019 00:00:00 -2,4 -3,8 46 25 - - WNW 10 -
16.02.2019 23:00:00 -2,0 -3,3 37 20 - - WNW 10 -
16.02.2019 22:00:00 -1,8 -3,1 37 20 - - NNE 10 -
16.02.2019 21:00:00 -1,2 -1,8 46 25 - - WNW - -
16.02.2019 20:00:00 -1,4 -2,1 46 25 - - WNW - -
16.02.2019 19:00:00 -1,8 -2,5 37 20 - - WNW - -
16.02.2019 18:00:00 -2,0 -3,3 46 25 - - WNW 10 -
16.02.2019 17:00:00 -2,0 -3,3 37 20 - - W 10 6
16.02.2019 16:00:00 -2,0 -3,3 41 22 - - NNE 10 -
16.02.2019 15:00:00 -1,8 -3,2 37 20 - - NNW - 0
16.02.2019 14:00:00 -1,8 -3,2 37 20 - - NNE - 0
16.02.2019 13:00:00 -2,0 -2,7 37 20 - - NNW - 0
16.02.2019 12:00:00 -2,4 -3,1 37 20 - - NNW - 0
16.02.2019 11:00:00 -2,8 -3,5 46 25 - - NNW - -
16.02.2019 10:00:00 -3,0 -4,4 37 20 - - NNW - 0
16.02.2019 09:00:00 -3,0 -4,4 50 27 - - NNW - 0
16.02.2019 08:00:00 -3,0 -4,4 52 28 - - NNW 15 0
16.02.2019 07:00:00 -3,0 -4,4 41 22 - - NW - -
16.02.2019 06:00:00 -3,0 -4,4 41 22 - - N - -
16.02.2019 05:00:00 -3,0 -30,0 46 25 - - N - -
16.02.2019 04:00:00 -3,0 -4,4 37 20 - - N - -
16.02.2019 03:00:00 -3,0 -4,4 46 25 - - WNW - -
16.02.2019 02:00:00 - - - - - - - - -
16.02.2019 01:00:00 -3,0 -30,0 37 20 - - NNW - -
16.02.2019 00:00:00 - - - - - - - - -
15.02.2019 23:00:00 -3,0 -4,3 28 15 - - NNW - -
15.02.2019 22:00:00 -3,0 -4,3 31 17 - - NNW - -
15.02.2019 21:00:00 -3,0 -4,3 48 26 - - NNW - -
15.02.2019 20:00:00 -3,0 -4,3 34 18 - - NNW - 0
15.02.2019 19:00:00 -3,0 -4,1 46 25 - - NNW - -
15.02.2019 18:00:00 -3,0 -4,1 46 25 - - N - -
15.02.2019 17:00:00 -1,8 -2,5 37 20 - - N - 0
15.02.2019 16:00:00 -1,8 -30,0 39 21 - - N - 0
15.02.2019 15:00:00 -1,2 -30,0 37 20 - - N - 0
15.02.2019 14:00:00 -1,0 -30,0 34 18 - - N - 0
15.02.2019 13:00:00 -1,0 -2,4 41 22 - - N 15 0
15.02.2019 12:00:00 -1,0 -2,4 46 25 - - NNE 15 0
15.02.2019 11:00:00 -1,4 -2,5 28 15 - - W - 0
15.02.2019 10:00:00 -1,8 -2,8 28 15 - - ENE - 0
15.02.2019 09:00:00 -1,8 -2,8 29 16 - - ENE - 0
15.02.2019 08:00:00 -1,6 -2,4 39 21 - - NE - 0
15.02.2019 07:00:00 -1,6 -2,4 34 18 - - ENE - 0
15.02.2019 06:00:00 -1,0 -2,0 26 14 - - NE - -
15.02.2019 05:00:00 -1,0 -1,7 28 15 - - NE - -
15.02.2019 04:00:00 -1,0 -2,1 28 15 - - ENE 15 -
15.02.2019 03:00:00 -1,0 -2,4 31 17 - - ENE 10 -
15.02.2019 02:00:00 -1,0 -3,2 31 17 - - E 15 -
15.02.2019 01:00:00 -1,0 -4,5 29 16 - - ENE 15 -
15.02.2019 00:00:00 0,0 -5,2 24 13 - - ENE 15 -
14.02.2019 23:00:00 0,4 -6,2 18 10 - - ENE 15 -
14.02.2019 22:00:00 1,4 -8,4 13 7 - - N 15 -
14.02.2019 21:00:00 1,6 -9,0 13 7 - - NNW 15 -
14.02.2019 20:00:00 1,4 -10,4 13 7 - - N 15 -
14.02.2019 19:00:00 1,0 -5,9 16 9 - - ENE 20 -
14.02.2019 18:00:00 1,0 -6,8 16 9 - - NE 20 -
14.02.2019 17:00:00 1,0 -6,8 22 12 - - ENE 20 0
14.02.2019 16:00:00 0,8 -5,0 26 14 - - ENE 20 6
14.02.2019 15:00:00 0,0 -2,7 26 14 - - ENE 20 24
14.02.2019 14:00:00 0,0 -1,9 37 20 - - ENE 20 60
14.02.2019 13:00:00 -0,4 -2,6 42 23 - - E 20 60
14.02.2019 12:00:00 -1,0 -6,5 39 21 - - ENE 20 60
14.02.2019 11:00:00 -1,8 -6,7 41 22 64 35 ENE 20 60
14.02.2019 10:00:00 -2,4 -6,7 48 26 - - NNE 20 36
14.02.2019 09:00:00 -3,8 -5,3 42 23 - - NNE 20 60
14.02.2019 08:00:00 -4,6 -5,5 44 24 - - NNE 10 0
14.02.2019 07:00:00 -5,6 -6,7 41 22 - - NNE 15 -
14.02.2019 06:00:00 -5,4 -6,3 46 25 - - NNE 10 -
14.02.2019 05:00:00 -5,6 -6,5 48 26 - - N 10 -
14.02.2019 04:00:00 -6,0 -7,0 41 22 - - N 10 -
14.02.2019 03:00:00 -6,0 -7,0 44 24 - - NNE 10 -
14.02.2019 02:00:00 -6,0 -7,0 42 23 - - NNE 10 -
14.02.2019 01:00:00 -5,8 -6,3 39 21 - - NNE 10 -
14.02.2019 00:00:00 -5,8 -6,9 52 28 - - NNE 10 -
13.02.2019 23:00:00 -5,8 -6,7 52 28 - - N 10 -
13.02.2019 22:00:00 -6,0 -7,0 48 26 - - NNE 10 -
13.02.2019 21:00:00 -6,0 -7,1 54 29 - - NNE 10 -
13.02.2019 20:00:00 -5,8 -8,7 48 26 - - NNE 10 -
13.02.2019 19:00:00 -5,8 -9,2 46 25 - - NNE 10 -
13.02.2019 18:00:00 -5,4 -9,3 48 26 - - NNE 10 -
13.02.2019 17:00:00 -5,4 -9,6 41 22 - - NNE 10 0
13.02.2019 16:00:00 -5,4 -9,0 35 19 - - NNE 10 0
13.02.2019 15:00:00 -5,6 -6,7 35 19 - - N 10 0
13.02.2019 14:00:00 -5,8 -6,9 37 20 - - NNE 10 0
13.02.2019 13:00:00 -5,8 -6,7 48 26 - - NNE 10 0
13.02.2019 12:00:00 -6,0 -7,0 48 26 - - N 10 0
13.02.2019 11:00:00 -6,0 -7,0 42 23 - - NNE - 0
13.02.2019 10:00:00 -6,0 -7,0 46 25 - - NNE - 0
13.02.2019 09:00:00 -7,0 -7,0 46 25 - - NNE - 0
13.02.2019 08:00:00 -7,0 -7,0 46 25 - - NNE - 0
13.02.2019 07:00:00 -6,0 -6,0 46 25 - - NNE - -
13.02.2019 06:00:00 -5,4 -5,4 44 24 - - NNE - -
13.02.2019 05:00:00 -5,6 -5,6 44 24 - - NNE - -
13.02.2019 04:00:00 -5,8 -5,8 42 23 - - NNE - -
13.02.2019 03:00:00 -5,4 -5,4 44 24 - - NNE 10 -
13.02.2019 02:00:00 -5,4 -5,4 46 25 - - NNE 10 -
13.02.2019 01:00:00 -5,4 -5,4 41 22 - - NNE - -
13.02.2019 00:00:00 -5,6 -5,6 46 25 - - NNE - -
12.02.2019 23:00:00 -5,0 -7,9 42 23 - - NNE 10 -
12.02.2019 22:00:00 -5,0 -6,7 41 22 - - NNE 10 -
12.02.2019 21:00:00 -4,4 -6,8 39 21 - - NNE 10 -
12.02.2019 20:00:00 -4,4 -6,1 37 20 - - NNE 10 -

tt = Température de l'air
td = dewpoint
ff = Vitesse du vent
fx = gusts
dd = Direction du vent
vv = visibility
sd = Ensoleillement

stations d'obs. à proximité